Burukan, Russia
Current Conditions -  °F | °C
As of 5:30 AM on Wednesday 22 Oct 2014 (Local Time) from UHHH Reporting Station
Clear Clear  
Wind Chill: 10°   Ceiling: Unl
Heat Index: 23°   Visibility: 6mi
Dew Point:   Wind: 16mph
Humidity: 46%   Direction: 250°WSW
Pressure: 30.09"   Gusts: NA
Location:  53.05°N, 136.03°E
Report Text: UHHH 211930Z 25007MPS CAVOK M05/M15 Q1019 NOSIG RMK QFE758/101023090060
Loading
Personal Weather Stations






























Interactive Weather Map
Tropical Storm Tracking
New forecast layout! Learn more

10-Day Weather Forecast

Advertisements
Track Severe Weather on mobile